Maridive 602 — V3PN3 — position and weather

sailwx.info

Track history (hours):
 
Tides and Currents Weather Stations Pressure Air Temp Water Temp Dewpoint Dewpoint Depression Visibility Wind Speed Wind Dir Waves Ship Positions

Maridive 602

Last reported at 2017-Sep-21 03:38 UTC. Time now 2017-Sep-21 12:25 UTC.
Position N 32°58' E 032°18'.

Length 76 m; draft 5.1 m.

Type: Other ship. MMSI: 312911000.

Date/timePositionNaut miles runAvg speedWind from/ knotsBaromVisibWave heightAir tempDewpointWater temp
2017-Sep-21 03:38N 32°58' E 032°18'0 0.7
2017-Sep-21 03:30N 32°58' E 032°18'0 0.0
2017-Sep-20 19:57N 32°58' E 032°18'0 0.3
2017-Sep-20 19:15N 32°58' E 032°18'0 0.0
2017-Sep-20 19:00N 32°58' E 032°18'0 0.0
2017-Sep-20 18:12N 32°58' E 032°18'  
2017-Sep-13 21:58N 31°21' E 032°20'0 0.0
2017-Sep-13 21:28N 31°21' E 032°20'0 0.0
2017-Sep-13 20:59N 31°21' E 032°20'0 0.0
2017-Sep-13 20:28N 31°21' E 032°20'0 0.0
2017-Sep-13 20:00N 31°21' E 032°20'0 0.0
2017-Sep-13 19:31N 31°21' E 032°20'0 0.0
2017-Sep-13 19:00N 31°21' E 032°20'0 0.0
2017-Sep-13 18:30N 31°21' E 032°20'1 1.8
2017-Sep-13 17:46N 31°22' E 032°21'2 9.2
2017-Sep-13 17:30N 31°24' E 032°20'95 2.9
2017-Sep-12 09:23N 32°59' E 032°22'0 0.0
2017-Sep-12 09:00N 32°59' E 032°22'0 0.0
2017-Sep-12 08:00N 32°59' E 032°22'0 0.2
2017-Sep-12 07:28N 32°59' E 032°22'0 0.0
2017-Sep-12 05:58N 32°59' E 032°22'0 0.0
2017-Sep-12 04:44N 32°59' E 032°22'0 0.0
2017-Sep-12 04:20N 32°59' E 032°22'0 0.0
2017-Sep-12 04:00N 32°59' E 032°22'0 0.0
2017-Sep-12 03:30N 32°59' E 032°22'0 0.0
2017-Sep-12 03:00N 32°59' E 032°22'0 0.0
2017-Sep-12 02:30N 32°59' E 032°22'0 0.1
2017-Sep-12 01:47N 32°59' E 032°22'0 0.2
2017-Sep-12 01:30N 32°59' E 032°22'0 0.0
2017-Sep-11 23:39N 32°59' E 032°22'0 0.1
2017-Sep-11 23:08N 32°59' E 032°22'0 0.2
2017-Sep-11 23:00N 32°59' E 032°22'0 0.1
2017-Sep-11 22:30N 32°59' E 032°22'0 0.1
2017-Sep-11 22:00N 32°59' E 032°22'0 0.0
2017-Sep-11 21:30N 32°59' E 032°22'0 0.0
2017-Sep-11 21:00N 32°59' E 032°22'0 0.0
2017-Sep-11 20:30N 32°59' E 032°22'0 0.0
2017-Sep-11 20:00N 32°59' E 032°22'5 0.6
2017-Sep-11 12:25N 32°54' E 032°23'10 9.1
2017-Sep-11 11:18N 32°44' E 032°22'16 8.9
2017-Sep-11 09:34N 32°28' E 032°22'1 9.2
2017-Sep-11 09:29N 32°28' E 032°22'16 9.0
2017-Sep-11 07:42N 32°12' E 032°23'20 9.2
2017-Sep-11 05:29N 31°51' E 032°23'13 9.2
2017-Sep-11 04:05N 31°38' E 032°23'1 9.3
2017-Sep-11 04:01N 31°38' E 032°23'  
Track history (hours):
 
Tides and Currents Weather Stations Pressure Air Temp Water Temp Dewpoint Dewpoint Depression Visibility Wind Speed Wind Dir Waves Ship Positions

Maridive 602

Last reported at 2017-Sep-21 03:38 UTC. Time now 2017-Sep-21 12:25 UTC.
Position N 32°58' E 032°18'.

Length 76 m; draft 5.1 m.

Type: Other ship. MMSI: 312911000.

Date/timePositionNaut miles runAvg speedWind from/ knotsBaromVisibWave heightAir tempDewpointWater temp
2017-Sep-21 03:38N 32°58' E 032°18'0 0.7
2017-Sep-21 03:30N 32°58' E 032°18'0 0.0
2017-Sep-20 19:57N 32°58' E 032°18'0 0.3
2017-Sep-20 19:15N 32°58' E 032°18'0 0.0
2017-Sep-20 19:00N 32°58' E 032°18'0 0.0
2017-Sep-20 18:12N 32°58' E 032°18'  
2017-Sep-13 21:58N 31°21' E 032°20'0 0.0
2017-Sep-13 21:28N 31°21' E 032°20'0 0.0
2017-Sep-13 20:59N 31°21' E 032°20'0 0.0
2017-Sep-13 20:28N 31°21' E 032°20'0 0.0
2017-Sep-13 20:00N 31°21' E 032°20'0 0.0
2017-Sep-13 19:31N 31°21' E 032°20'0 0.0
2017-Sep-13 19:00N 31°21' E 032°20'0 0.0
2017-Sep-13 18:30N 31°21' E 032°20'1 1.8
2017-Sep-13 17:46N 31°22' E 032°21'2 9.2
2017-Sep-13 17:30N 31°24' E 032°20'95 2.9
2017-Sep-12 09:23N 32°59' E 032°22'0 0.0
2017-Sep-12 09:00N 32°59' E 032°22'0 0.0
2017-Sep-12 08:00N 32°59' E 032°22'0 0.2
2017-Sep-12 07:28N 32°59' E 032°22'0 0.0
2017-Sep-12 05:58N 32°59' E 032°22'0 0.0
2017-Sep-12 04:44N 32°59' E 032°22'0 0.0
2017-Sep-12 04:20N 32°59' E 032°22'0 0.0
2017-Sep-12 04:00N 32°59' E 032°22'0 0.0
2017-Sep-12 03:30N 32°59' E 032°22'0 0.0
2017-Sep-12 03:00N 32°59' E 032°22'0 0.0
2017-Sep-12 02:30N 32°59' E 032°22'0 0.1
2017-Sep-12 01:47N 32°59' E 032°22'0 0.2
2017-Sep-12 01:30N 32°59' E 032°22'0 0.0
2017-Sep-11 23:39N 32°59' E 032°22'0 0.1
2017-Sep-11 23:08N 32°59' E 032°22'0 0.2
2017-Sep-11 23:00N 32°59' E 032°22'0 0.1
2017-Sep-11 22:30N 32°59' E 032°22'0 0.1
2017-Sep-11 22:00N 32°59' E 032°22'0 0.0
2017-Sep-11 21:30N 32°59' E 032°22'0 0.0
2017-Sep-11 21:00N 32°59' E 032°22'0 0.0
2017-Sep-11 20:30N 32°59' E 032°22'0 0.0
2017-Sep-11 20:00N 32°59' E 032°22'5 0.6
2017-Sep-11 12:25N 32°54' E 032°23'10 9.1
2017-Sep-11 11:18N 32°44' E 032°22'16 8.9
2017-Sep-11 09:34N 32°28' E 032°22'1 9.2
2017-Sep-11 09:29N 32°28' E 032°22'16 9.0
2017-Sep-11 07:42N 32°12' E 032°23'20 9.2
2017-Sep-11 05:29N 31°51' E 032°23'13 9.2
2017-Sep-11 04:05N 31°38' E 032°23'1 9.3
2017-Sep-11 04:01N 31°38' E 032°23'  

Dump ship's entire track history